Time;durP1;ratioP1;P1;durP2;ratioP2;P2;SDS_P1;SDS_P2;PMS_P1;PMS_P2;Temp;Humidity;BMP_temperature;BMP_pressure;BME280_temperature;BME280_humidity;BME280_pressure;Samples;Min_cycle;Max_cycle;Signal;HPM_P1;HPM_P2
2023/11/29 00:00:17;;;;;;;;;29.67;29.00;;;;;;;;5047444;28;8882;-81
2023/11/29 00:02:46;;;;;;;;;29.67;29.67;;;;;;;;5044445;28;8877;-81
2023/11/29 00:05:14;;;;;;;;;32.00;32.00;;;;;;;;5048160;28;8859;-81
2023/11/29 00:07:47;;;;;;;;;39.33;36.67;;;;;;;;5053691;28;8875;-81
2023/11/29 00:10:14;;;;;;;;;34.67;31.33;;;;;;;;5048467;28;8836;-82
2023/11/29 00:12:41;;;;;;;;;36.00;32.33;;;;;;;;5044740;28;8877;-82
2023/11/29 00:15:11;;;;;;;;;41.67;37.33;;;;;;;;5050920;28;8847;-81
2023/11/29 00:17:38;;;;;;;;;32.00;32.00;;;;;;;;5052306;28;8851;-80
2023/11/29 00:20:06;;;;;;;;;42.00;37.67;;;;;;;;5050434;28;9010;-82
2023/11/29 00:22:33;;;;;;;;;35.00;33.00;;;;;;;;5049138;28;8981;-81
2023/11/29 00:25:02;;;;;;;;;33.00;28.33;;;;;;;;5048648;28;8886;-82
2023/11/29 00:27:29;;;;;;;;;41.67;37.00;;;;;;;;5047833;28;8997;-81
2023/11/29 00:29:57;;;;;;;;;39.67;35.67;;;;;;;;5048009;28;8855;-81
2023/11/29 00:32:24;;;;;;;;;44.33;35.33;;;;;;;;5047320;28;8792;-82
2023/11/29 00:34:51;;;;;;;;;33.67;33.67;;;;;;;;5048464;28;8870;-81
2023/11/29 00:37:18;;;;;;;;;40.33;35.00;;;;;;;;5047664;28;8847;-82
2023/11/29 00:39:46;;;;;;;;;42.00;39.67;;;;;;;;5048459;28;9626;-81
2023/11/29 00:42:14;;;;;;;;;47.00;41.33;;;;;;;;5047980;28;8884;-82
2023/11/29 00:44:42;;;;;;;;;46.00;41.00;;;;;;;;5048687;28;8893;-81
2023/11/29 00:47:09;;;;;;;;;51.67;40.67;;;;;;;;5048526;28;8972;-82
2023/11/29 00:49:37;;;;;;;;;49.00;43.67;;;;;;;;5048344;28;9798;-80
2023/11/29 00:52:05;;;;;;;;;47.00;42.00;;;;;;;;5048024;28;8851;-82
2023/11/29 00:54:32;;;;;;;;;59.33;44.00;;;;;;;;5048315;28;8867;-81
2023/11/29 00:57:00;;;;;;;;;49.00;41.00;;;;;;;;5048171;28;8924;-82
2023/11/29 00:59:29;;;;;;;;;45.67;41.67;;;;;;;;5048615;28;8863;-83
2023/11/29 01:01:56;;;;;;;;;56.00;43.67;;;;;;;;5046988;28;8808;-82
2023/11/29 01:04:23;;;;;;;;;47.00;40.33;;;;;;;;5048229;28;8885;-81
2023/11/29 01:06:50;;;;;;;;;45.67;40.00;;;;;;;;5048422;28;8851;-81
2023/11/29 01:09:19;;;;;;;;;40.67;34.67;;;;;;;;5048331;28;9659;-81
2023/11/29 01:11:47;;;;;;;;;31.67;29.00;;;;;;;;5048410;28;9626;-82
2023/11/29 01:14:14;;;;;;;;;45.00;41.67;;;;;;;;5048036;28;8858;-81
2023/11/29 01:16:43;;;;;;;;;46.00;40.33;;;;;;;;5048471;28;8883;-81
2023/11/29 01:19:12;;;;;;;;;42.33;36.67;;;;;;;;5048715;28;8972;-82
2023/11/29 01:21:39;;;;;;;;;43.33;36.33;;;;;;;;5049260;28;11722;-80
2023/11/29 01:24:07;;;;;;;;;35.33;33.67;;;;;;;;5048246;28;11724;-80
2023/11/29 01:26:35;;;;;;;;;51.00;41.33;;;;;;;;5051001;28;8847;-81
2023/11/29 01:29:02;;;;;;;;;39.33;37.00;;;;;;;;5051582;28;8897;-82
2023/11/29 01:31:30;;;;;;;;;45.33;39.00;;;;;;;;5052357;28;11654;-82
2023/11/29 01:33:59;;;;;;;;;44.00;41.00;;;;;;;;5051991;28;11570;-83
2023/11/29 01:36:26;;;;;;;;;44.00;38.33;;;;;;;;5052198;28;8990;-82
2023/11/29 01:38:54;;;;;;;;;44.67;39.67;;;;;;;;5052517;28;11621;-82
2023/11/29 01:41:21;;;;;;;;;35.33;31.00;;;;;;;;5054369;28;11609;-82
2023/11/29 01:43:49;;;;;;;;;40.00;38.67;;;;;;;;5055396;28;11654;-81
2023/11/29 01:46:16;;;;;;;;;42.25;37.50;;;;;;;;5057238;28;11639;-82
2023/11/29 01:48:43;;;;;;;;;39.33;36.67;;;;;;;;5048962;28;11707;-81
2023/11/29 01:51:12;;;;;;;;;41.67;37.00;;;;;;;;5057062;28;11563;-82
2023/11/29 01:53:39;;;;;;;;;43.00;39.00;;;;;;;;5056754;28;11578;-82
2023/11/29 01:56:08;;;;;;;;;37.67;37.33;;;;;;;;5052615;28;11584;-83
2023/11/29 01:58:35;;;;;;;;;34.00;30.67;;;;;;;;5055601;28;11581;-83
2023/11/29 02:01:03;;;;;;;;;41.00;37.00;;;;;;;;5052674;28;11526;-82
2023/11/29 02:03:30;;;;;;;;;43.67;37.00;;;;;;;;5051234;28;11548;-83
2023/11/29 02:05:58;;;;;;;;;50.33;45.00;;;;;;;;5055107;28;11584;-83
2023/11/29 02:08:28;;;;;;;;;51.33;41.00;;;;;;;;5054960;28;8924;-83
2023/11/29 02:10:55;;;;;;;;;52.33;41.00;;;;;;;;5050986;28;11691;-84
2023/11/29 02:13:22;;;;;;;;;37.33;37.00;;;;;;;;5050008;28;8891;-82
2023/11/29 02:15:50;;;;;;;;;40.00;35.00;;;;;;;;5048723;28;11560;-83
2023/11/29 02:18:17;;;;;;;;;45.00;40.67;;;;;;;;5051269;28;12371;-82
2023/11/29 02:20:44;;;;;;;;;48.25;41.00;;;;;;;;5051543;28;11581;-82
2023/11/29 02:23:18;;;;;;;;;40.50;39.25;;;;;;;;5038438;28;11628;-82
2023/11/29 02:25:50;;;;;;;;;38.75;34.25;;;;;;;;5051179;28;12321;-81
2023/11/29 02:28:18;;;;;;;;;39.50;36.25;;;;;;;;5043503;28;11548;-82
2023/11/29 02:30:45;;;;;;;;;42.00;39.00;;;;;;;;5051200;28;11613;-82
2023/11/29 02:33:12;;;;;;;;;32.75;32.00;;;;;;;;5049980;28;11611;-82
2023/11/29 02:35:39;;;;;;;;;44.50;39.50;;;;;;;;5050811;28;11569;-83
2023/11/29 02:38:09;;;;;;;;;32.50;31.50;;;;;;;;5049903;28;11702;-82
2023/11/29 02:40:37;;;;;;;;;44.50;41.25;;;;;;;;5049438;28;11562;-82
2023/11/29 02:43:06;;;;;;;;;41.50;38.50;;;;;;;;5050595;28;11698;-82
2023/11/29 02:45:33;;;;;;;;;33.00;30.50;;;;;;;;5048947;28;11675;-82
2023/11/29 02:48:00;;;;;;;;;43.75;38.75;;;;;;;;5050341;28;11589;-81
2023/11/29 02:50:27;;;;;;;;;32.50;32.50;;;;;;;;5049879;28;11558;-81
2023/11/29 02:52:57;;;;;;;;;41.25;34.00;;;;;;;;5050937;28;11654;-82
2023/11/29 02:55:24;;;;;;;;;39.50;36.75;;;;;;;;5050402;28;11679;-82
2023/11/29 02:57:51;;;;;;;;;41.25;37.25;;;;;;;;5050146;28;11555;-82
2023/11/29 03:00:20;;;;;;;;;43.00;40.00;;;;;;;;5049769;28;11710;-82
2023/11/29 03:02:47;;;;;;;;;40.50;37.00;;;;;;;;5049730;28;11576;-82
2023/11/29 03:05:15;;;;;;;;;47.50;37.75;;;;;;;;5050542;28;11578;-82
2023/11/29 03:07:42;;;;;;;;;43.75;37.75;;;;;;;;5049854;28;11657;-83
2023/11/29 03:10:10;;;;;;;;;47.00;41.25;;;;;;;;5050601;28;11577;-82
2023/11/29 03:12:37;;;;;;;;;46.25;42.00;;;;;;;;5050006;28;11565;-82
2023/11/29 03:15:05;;;;;;;;;38.75;35.00;;;;;;;;5049803;28;11589;-80
2023/11/29 03:17:34;;;;;;;;;47.75;37.50;;;;;;;;5049969;28;11604;-82
2023/11/29 03:20:03;;;;;;;;;44.25;41.50;;;;;;;;5049578;28;11577;-81
2023/11/29 03:22:30;;;;;;;;;46.25;42.25;;;;;;;;5049944;28;11570;-81
2023/11/29 03:24:58;;;;;;;;;39.00;37.00;;;;;;;;5050188;28;11578;-80
2023/11/29 03:27:25;;;;;;;;;34.25;34.25;;;;;;;;5050430;28;11574;-81
2023/11/29 03:29:52;;;;;;;;;47.25;41.50;;;;;;;;5051467;28;11727;-81
2023/11/29 03:32:20;;;;;;;;;44.50;41.00;;;;;;;;5052477;28;11613;-80
2023/11/29 03:34:49;;;;;;;;;47.00;39.25;;;;;;;;5045835;28;12405;-81
2023/11/29 03:37:16;;;;;;;;;43.00;38.75;;;;;;;;5043485;28;11714;-82
2023/11/29 03:39:43;;;;;;;;;45.75;41.00;;;;;;;;5040261;28;11966;-82
2023/11/29 03:42:10;;;;;;;;;38.25;36.00;;;;;;;;5045119;28;11725;-82
2023/11/29 03:44:38;;;;;;;;;38.75;36.75;;;;;;;;5042967;28;11624;-80
2023/11/29 03:47:06;;;;;;;;;38.50;36.50;;;;;;;;5041322;28;11578;-83
2023/11/29 03:49:33;;;;;;;;;45.50;38.75;;;;;;;;5049554;28;11558;-83
2023/11/29 03:52:01;;;;;;;;;42.75;39.00;;;;;;;;5040878;28;11570;-82
2023/11/29 03:54:32;;;;;;;;;44.25;41.50;;;;;;;;5052835;28;11598;-83
2023/11/29 03:56:59;;;;;;;;;46.50;40.00;;;;;;;;5052789;28;11565;-82
2023/11/29 03:59:26;;;;;;;;;39.50;36.50;;;;;;;;5049294;28;12208;-82
2023/11/29 04:01:53;;;;;;;;;44.00;38.00;;;;;;;;5048631;28;11524;-81
2023/11/29 04:04:21;;;;;;;;;43.00;37.50;;;;;;;;5048743;28;11685;-82
2023/11/29 04:06:48;;;;;;;;;39.00;38.00;;;;;;;;5040133;28;11577;-82
2023/11/29 04:09:17;;;;;;;;;25.00;23.50;;;;;;;;5046135;28;11665;-83
2023/11/29 04:11:46;;;;;;;;;35.00;31.50;;;;;;;;5049443;28;11564;-82
2023/11/29 04:14:13;;;;;;;;;24.50;24.50;;;;;;;;5051133;28;12510;-82
2023/11/29 04:16:40;;;;;;;;;19.50;18.50;;;;;;;;5049748;28;11600;-80
2023/11/29 04:19:08;;;;;;;;;46.50;40.25;;;;;;;;5048167;28;12385;-82
2023/11/29 04:21:36;;;;;;;;;38.25;38.00;;;;;;;;5048945;28;11587;-81
2023/11/29 04:24:04;;;;;;;;;44.75;39.00;;;;;;;;5048339;28;11561;-82
2023/11/29 04:26:33;;;;;;;;;42.25;38.00;;;;;;;;5048955;28;11585;-81
2023/11/29 04:29:02;;;;;;;;;39.25;37.00;;;;;;;;5048756;28;11565;-82
2023/11/29 04:31:30;;;;;;;;;42.75;36.50;;;;;;;;5048378;28;11528;-84
2023/11/29 04:33:57;;;;;;;;;28.25;28.25;;;;;;;;5048897;28;11550;-82
2023/11/29 04:36:27;;;;;;;;;38.25;33.50;;;;;;;;5048302;28;11633;-82
2023/11/29 04:38:55;;;;;;;;;32.50;30.25;;;;;;;;5047981;28;11690;-81
2023/11/29 04:41:23;;;;;;;;;31.75;30.00;;;;;;;;5048630;28;11578;-82
2023/11/29 04:43:52;;;;;;;;;38.50;37.00;;;;;;;;5048884;28;11688;-82
2023/11/29 04:46:19;;;;;;;;;35.50;33.25;;;;;;;;5048684;28;11624;-82
2023/11/29 04:48:47;;;;;;;;;38.75;35.25;;;;;;;;5046994;28;11577;-82
2023/11/29 04:51:14;;;;;;;;;31.25;29.25;;;;;;;;5050239;28;11679;-82
2023/11/29 04:53:41;;;;;;;;;33.00;33.00;;;;;;;;5040995;28;11692;-81
2023/11/29 04:56:09;;;;;;;;;39.75;38.00;;;;;;;;5048098;28;11564;-80
2023/11/29 04:58:39;;;;;;;;;45.25;37.50;;;;;;;;5048508;28;11594;-82
2023/11/29 05:01:10;;;;;;;;;38.25;35.75;;;;;;;;5046833;28;11637;-81
2023/11/29 05:03:38;;;;;;;;;36.50;31.00;;;;;;;;5048230;28;11613;-81
2023/11/29 05:06:06;;;;;;;;;36.50;32.00;;;;;;;;5055039;28;11559;-84
2023/11/29 05:08:33;;;;;;;;;45.25;37.25;;;;;;;;5048728;28;11595;-84
2023/11/29 05:11:01;;;;;;;;;34.50;33.75;;;;;;;;5047894;28;11584;-83
2023/11/29 05:13:29;;;;;;;;;34.75;33.00;;;;;;;;5049143;28;11603;-86
2023/11/29 05:15:56;;;;;;;;;36.25;33.50;;;;;;;;5048575;28;11700;-83
2023/11/29 05:18:36;;;;;;;;;35.50;31.50;;;;;;;;5046715;28;11640;-81
2023/11/29 05:21:04;;;;;;;;;29.50;29.50;;;;;;;;5050169;28;11707;-81
2023/11/29 05:23:32;;;;;;;;;38.50;34.00;;;;;;;;5052836;28;11576;-80
2023/11/29 05:26:02;;;;;;;;;36.75;31.25;;;;;;;;5038993;28;11633;-80
2023/11/29 05:28:32;;;;;;;;;37.25;33.00;;;;;;;;5044694;28;11614;-81
2023/11/29 05:31:00;;;;;;;;;43.75;33.50;;;;;;;;5038007;28;11555;-82
2023/11/29 05:33:29;;;;;;;;;30.25;30.25;;;;;;;;5045380;28;11554;-82
2023/11/29 05:35:56;;;;;;;;;35.75;30.25;;;;;;;;5051617;28;11553;-82
2023/11/29 05:38:24;;;;;;;;;26.00;24.00;;;;;;;;5048440;28;11595;-82
2023/11/29 05:40:53;;;;;;;;;29.00;27.25;;;;;;;;5041967;28;11559;-83
2023/11/29 05:43:20;;;;;;;;;38.75;37.00;;;;;;;;5051194;28;11565;-82
2023/11/29 05:45:47;;;;;;;;;38.25;31.00;;;;;;;;5051883;28;11576;-83
2023/11/29 05:48:14;;;;;;;;;39.75;35.00;;;;;;;;5049052;28;11629;-82
2023/11/29 05:50:43;;;;;;;;;28.75;28.25;;;;;;;;5046248;28;12251;-83
2023/11/29 05:53:11;;;;;;;;;36.50;34.00;;;;;;;;5046719;28;11718;-84
2023/11/29 05:55:38;;;;;;;;;33.00;30.75;;;;;;;;5047435;28;11579;-82
2023/11/29 05:58:05;;;;;;;;;30.75;30.75;;;;;;;;5045397;28;11585;-83
2023/11/29 06:00:33;;;;;;;;;30.50;25.75;;;;;;;;5046585;28;11508;-82
2023/11/29 06:03:00;;;;;;;;;30.50;30.50;;;;;;;;5046927;28;11562;-82
2023/11/29 06:05:30;;;;;;;;;27.25;27.25;;;;;;;;5039687;28;11728;-83
2023/11/29 06:07:58;;;;;;;;;32.25;30.00;;;;;;;;5045546;28;11559;-74
2023/11/29 06:10:25;;;;;;;;;30.75;30.75;;;;;;;;5047109;28;11556;-83
2023/11/29 06:12:53;;;;;;;;;35.25;34.75;;;;;;;;5047240;28;11549;-76
2023/11/29 06:15:20;;;;;;;;;38.75;34.50;;;;;;;;5051517;28;11604;-82
2023/11/29 06:17:47;;;;;;;;;36.00;30.50;;;;;;;;5050109;28;11665;-80
2023/11/29 06:20:18;;;;;;;;;37.25;30.50;;;;;;;;5050055;28;11607;-82
2023/11/29 06:22:45;;;;;;;;;33.75;31.75;;;;;;;;5051039;28;11609;-80
2023/11/29 06:25:14;;;;;;;;;32.00;28.25;;;;;;;;5050200;28;11601;-80
2023/11/29 06:27:42;;;;;;;;;33.50;32.25;;;;;;;;5050679;28;11581;-82
2023/11/29 06:30:10;;;;;;;;;37.75;34.25;;;;;;;;5049971;28;11578;-74
2023/11/29 06:32:37;;;;;;;;;34.25;31.75;;;;;;;;5050468;28;11555;-75
2023/11/29 06:35:05;;;;;;;;;33.75;32.25;;;;;;;;5049697;28;11571;-78
2023/11/29 06:37:33;;;;;;;;;34.00;30.25;;;;;;;;5050682;28;11572;-76
2023/11/29 06:40:01;;;;;;;;;38.00;29.25;;;;;;;;5050212;28;11554;-83
2023/11/29 06:42:30;;;;;;;;;29.75;28.25;;;;;;;;5050950;28;12359;-83
2023/11/29 06:44:57;;;;;;;;;28.50;26.50;;;;;;;;5049393;28;11656;-83
2023/11/29 06:47:25;;;;;;;;;31.50;28.50;;;;;;;;5050737;28;11601;-80
2023/11/29 06:49:59;;;;;;;;;27.25;25.00;;;;;;;;5050637;28;11550;-77
2023/11/29 06:52:26;;;;;;;;;30.75;28.25;;;;;;;;5050877;28;11564;-81
2023/11/29 06:54:54;;;;;;;;;35.25;28.50;;;;;;;;5050484;28;11580;-84
2023/11/29 06:57:23;;;;;;;;;27.50;27.25;;;;;;;;5050931;28;11573;-82
2023/11/29 06:59:54;;;;;;;;;24.25;24.25;;;;;;;;5050494;28;11680;-82
2023/11/29 07:02:21;;;;;;;;;21.75;20.00;;;;;;;;5050945;28;11743;-83
2023/11/29 07:04:48;;;;;;;;;24.75;24.25;;;;;;;;5052712;28;11615;-82
2023/11/29 07:07:17;;;;;;;;;27.50;27.25;;;;;;;;5055102;28;11589;-77
2023/11/29 07:09:45;;;;;;;;;32.50;29.25;;;;;;;;5044630;28;11554;-78
2023/11/29 07:12:12;;;;;;;;;27.25;23.75;;;;;;;;5044591;28;11576;-84
2023/11/29 07:14:39;;;;;;;;;30.75;26.00;;;;;;;;5056062;28;11616;-80
2023/11/29 07:17:08;;;;;;;;;27.00;24.50;;;;;;;;5042039;28;11591;-80
2023/11/29 07:19:35;;;;;;;;;29.75;26.50;;;;;;;;5053650;28;11582;-81
2023/11/29 07:22:02;;;;;;;;;29.75;28.75;;;;;;;;5053737;28;11597;-79
2023/11/29 07:24:33;;;;;;;;;21.25;21.00;;;;;;;;5055874;28;11582;-80
2023/11/29 07:27:00;;;;;;;;;26.00;26.00;;;;;;;;5055037;28;11584;-80
2023/11/29 07:29:45;;;;;;;;;29.00;23.50;;;;;;;;5052026;28;11667;-76
2023/11/29 07:32:15;;;;;;;;;27.50;25.50;;;;;;;;5050181;28;11591;-78
2023/11/29 07:34:49;;;;;;;;;25.75;23.25;;;;;;;;5049823;28;11732;-77
2023/11/29 07:37:21;;;;;;;;;25.00;23.75;;;;;;;;5048193;28;11596;-84
2023/11/29 07:39:48;;;;;;;;;33.00;32.50;;;;;;;;5049271;28;11625;-81
2023/11/29 07:42:16;;;;;;;;;24.25;23.00;;;;;;;;5050239;28;11698;-79
2023/11/29 07:44:44;;;;;;;;;33.75;27.75;;;;;;;;5042421;28;11586;-78
2023/11/29 07:47:19;;;;;;;;;35.00;34.75;;;;;;;;5049120;28;11665;-77
2023/11/29 07:49:46;;;;;;;;;34.50;30.75;;;;;;;;5049028;28;11569;-76
2023/11/29 07:52:14;;;;;;;;;25.75;24.50;;;;;;;;5049056;28;11592;-77
2023/11/29 07:54:44;;;;;;;;;29.50;28.00;;;;;;;;5049453;28;11568;-75
2023/11/29 07:57:12;;;;;;;;;30.50;26.25;;;;;;;;5048951;28;11711;-74
2023/11/29 07:59:40;;;;;;;;;19.25;17.50;;;;;;;;5047730;28;11678;-78
2023/11/29 08:02:07;;;;;;;;;27.75;21.75;;;;;;;;5048038;28;12298;-80
2023/11/29 08:04:46;;;;;;;;;31.50;26.25;;;;;;;;5038277;28;11556;-80
2023/11/29 08:07:13;;;;;;;;;23.25;20.75;;;;;;;;5048764;28;11582;-81
2023/11/29 08:09:41;;;;;;;;;24.50;24.50;;;;;;;;5042321;28;11560;-74
2023/11/29 08:12:10;;;;;;;;;27.50;27.50;;;;;;;;5042927;28;11567;-74
2023/11/29 08:14:37;;;;;;;;;29.00;28.25;;;;;;;;5048449;28;11598;-75
2023/11/29 08:17:05;;;;;;;;;37.25;29.25;;;;;;;;5048327;28;11544;-80
2023/11/29 08:19:32;;;;;;;;;28.25;22.50;;;;;;;;5048797;28;11557;-76
2023/11/29 08:22:03;;;;;;;;;30.50;28.25;;;;;;;;5049609;28;11560;-82
2023/11/29 08:24:30;;;;;;;;;32.00;32.00;;;;;;;;5049553;28;11544;-85
2023/11/29 08:26:57;;;;;;;;;28.25;24.50;;;;;;;;5045428;28;11593;-76
2023/11/29 08:29:25;;;;;;;;;31.25;28.25;;;;;;;;5044953;28;11575;-82
2023/11/29 08:31:57;;;;;;;;;33.25;31.00;;;;;;;;5044703;28;11520;-81
2023/11/29 08:34:24;;;;;;;;;36.25;32.25;;;;;;;;5047890;28;11545;-76
2023/11/29 08:36:52;;;;;;;;;25.00;25.00;;;;;;;;5047375;28;11585;-78
2023/11/29 08:39:22;;;;;;;;;28.75;28.75;;;;;;;;5049052;28;11610;-76
2023/11/29 08:41:50;;;;;;;;;44.50;39.75;;;;;;;;5048517;28;11581;-77
2023/11/29 08:44:18;;;;;;;;;46.25;39.00;;;;;;;;5048122;28;11586;-80
2023/11/29 08:46:46;;;;;;;;;44.50;40.00;;;;;;;;5047280;28;11633;-76
2023/11/29 08:49:13;;;;;;;;;55.75;44.00;;;;;;;;5044026;28;11714;-82
2023/11/29 08:51:40;;;;;;;;;49.00;43.50;;;;;;;;5047425;28;11610;-76
2023/11/29 08:54:07;;;;;;;;;56.25;44.75;;;;;;;;5048447;28;11557;-80
2023/11/29 08:56:36;;;;;;;;;52.75;45.00;;;;;;;;5048179;28;12403;-82
2023/11/29 08:59:04;;;;;;;;;55.50;45.25;;;;;;;;5049161;28;11562;-83
2023/11/29 09:01:40;;;;;;;;;54.25;45.00;;;;;;;;5050526;28;11551;-83
2023/11/29 09:04:07;;;;;;;;;52.00;43.25;;;;;;;;5041764;28;11617;-83
2023/11/29 09:06:35;;;;;;;;;52.75;45.00;;;;;;;;5052758;28;11711;-81
2023/11/29 09:09:02;;;;;;;;;45.25;41.75;;;;;;;;5051731;28;11621;-78
2023/11/29 09:11:29;;;;;;;;;44.25;38.25;;;;;;;;5043925;28;11592;-81
2023/11/29 09:13:58;;;;;;;;;45.50;40.00;;;;;;;;5052158;28;11575;-82
2023/11/29 09:16:25;;;;;;;;;39.75;36.50;;;;;;;;5044807;28;12448;-78
2023/11/29 09:18:52;;;;;;;;;33.00;29.50;;;;;;;;5045243;28;12336;-81
2023/11/29 09:21:20;;;;;;;;;45.25;40.25;;;;;;;;5048813;28;11603;-76
2023/11/29 09:23:47;;;;;;;;;47.75;42.75;;;;;;;;5050190;28;11565;-78
2023/11/29 09:26:15;;;;;;;;;47.50;40.00;;;;;;;;5041315;28;11576;-74
2023/11/29 09:28:42;;;;;;;;;35.50;34.00;;;;;;;;5048724;28;11581;-76
2023/11/29 09:31:13;;;;;;;;;22.75;22.75;;;;;;;;5047086;28;11512;-79
2023/11/29 09:33:42;;;;;;;;;22.50;21.75;;;;;;;;5047165;28;11955;-80
2023/11/29 09:36:10;;;;;;;;;26.25;22.75;;;;;;;;5047615;28;11547;-79
2023/11/29 09:38:38;;;;;;;;;17.25;16.75;;;;;;;;5047681;28;11545;-82
2023/11/29 09:41:07;;;;;;;;;23.00;23.00;;;;;;;;5047258;28;11573;-79
2023/11/29 09:43:35;;;;;;;;;24.25;20.50;;;;;;;;5047382;28;11673;-84
2023/11/29 09:46:02;;;;;;;;;28.00;24.25;;;;;;;;5047498;28;11562;-82
2023/11/29 09:48:30;;;;;;;;;20.00;18.00;;;;;;;;5051205;28;12463;-78
2023/11/29 09:50:58;;;;;;;;;24.75;23.00;;;;;;;;5050943;28;11572;-75
2023/11/29 09:53:26;;;;;;;;;23.00;21.00;;;;;;;;5051046;28;12389;-83
2023/11/29 09:55:54;;;;;;;;;22.75;21.00;;;;;;;;5052233;28;11570;-80
2023/11/29 09:58:24;;;;;;;;;21.00;18.75;;;;;;;;5040466;28;11672;-77
2023/11/29 10:00:51;;;;;;;;;19.00;18.50;;;;;;;;5054688;28;11633;-76
2023/11/29 10:03:20;;;;;;;;;16.75;16.75;;;;;;;;5053198;28;12402;-76
2023/11/29 10:05:50;;;;;;;;;25.75;19.75;;;;;;;;5051579;28;11562;-81
2023/11/29 10:08:19;;;;;;;;;18.00;17.50;;;;;;;;5051788;28;11624;-79
2023/11/29 10:10:46;;;;;;;;;23.00;21.50;;;;;;;;5052306;28;11539;-82
2023/11/29 10:13:15;;;;;;;;;21.00;21.00;;;;;;;;5052385;28;11582;-83
2023/11/29 10:15:46;;;;;;;;;17.00;17.00;;;;;;;;5052474;28;11559;-82
2023/11/29 10:18:16;;;;;;;;;16.75;16.75;;;;;;;;5052260;28;12338;-80
2023/11/29 10:20:46;;;;;;;;;23.25;23.25;;;;;;;;5050798;28;11559;-82
2023/11/29 10:23:15;;;;;;;;;21.75;19.00;;;;;;;;5050592;28;12378;-84
2023/11/29 10:25:44;;;;;;;;;18.50;18.50;;;;;;;;5050606;28;11576;-77
2023/11/29 10:28:12;;;;;;;;;19.25;15.00;;;;;;;;5050718;28;11517;-82
2023/11/29 10:30:39;;;;;;;;;20.00;17.50;;;;;;;;5049551;28;11454;-82
2023/11/29 10:33:09;;;;;;;;;24.00;19.50;;;;;;;;5050362;28;11505;-82
2023/11/29 10:35:37;;;;;;;;;18.00;18.00;;;;;;;;5050257;28;11495;-81
2023/11/29 10:38:11;;;;;;;;;25.00;21.50;;;;;;;;5050413;28;11624;-81
2023/11/29 10:40:40;;;;;;;;;22.50;20.00;;;;;;;;5050947;28;11506;-82
2023/11/29 10:43:10;;;;;;;;;26.25;22.75;;;;;;;;5050339;28;12254;-83
2023/11/29 10:45:40;;;;;;;;;21.75;21.75;;;;;;;;5051901;28;11592;-83
2023/11/29 10:48:12;;;;;;;;;26.25;21.50;;;;;;;;5051998;28;11646;-80
2023/11/29 10:50:40;;;;;;;;;27.25;21.75;;;;;;;;5052582;28;11581;-83
2023/11/29 10:53:08;;;;;;;;;24.25;22.25;;;;;;;;5053721;28;11604;-82
2023/11/29 10:55:39;;;;;;;;;26.75;23.25;;;;;;;;5047621;28;11557;-82
2023/11/29 10:58:19;;;;;;;;;27.75;25.25;;;;;;;;5047940;28;11587;-80
2023/11/29 11:00:47;;;;;;;;;17.50;15.50;;;;;;;;5051730;28;11479;-80
2023/11/29 11:03:38;;;;;;;;;27.50;25.50;;;;;;;;5046361;28;12170;-83
2023/11/29 11:06:35;;;;;;;;;25.00;22.75;;;;;;;;5046189;28;11571;-78
2023/11/29 11:09:03;;;;;;;;;26.75;24.75;;;;;;;;5040652;28;11619;-82
2023/11/29 11:11:45;;;;;;;;;21.25;21.25;;;;;;;;5046082;28;11654;-78
2023/11/29 11:14:20;;;;;;;;;30.25;26.25;;;;;;;;5052219;28;11558;-78
2023/11/29 11:16:58;;;;;;;;;22.75;22.75;;;;;;;;5052731;28;11578;-78
2023/11/29 11:19:38;;;;;;;;;26.00;24.25;;;;;;;;5050166;28;11582;-75
2023/11/29 11:22:10;;;;;;;;;21.25;21.25;;;;;;;;5046816;28;11570;-76
2023/11/29 11:25:04;;;;;;;;;27.00;25.00;;;;;;;;5049270;28;11588;-82
2023/11/29 11:27:34;;;;;;;;;25.50;25.50;;;;;;;;5048467;28;11568;-76
2023/11/29 11:30:35;;;;;;;;;18.75;18.75;;;;;;;;5044963;28;11540;-80
2023/11/29 11:33:02;;;;;;;;;26.50;23.25;;;;;;;;5047843;28;11547;-79
2023/11/29 11:35:36;;;;;;;;;24.75;22.50;;;;;;;;5048835;28;11490;-82
2023/11/29 11:38:07;;;;;;;;;21.75;19.25;;;;;;;;5048748;28;11500;-78
2023/11/29 11:40:37;;;;;;;;;20.75;20.50;;;;;;;;5049045;28;11473;-80
2023/11/29 11:43:06;;;;;;;;;21.50;19.75;;;;;;;;5048605;28;11518;-79
2023/11/29 11:45:36;;;;;;;;;24.00;21.25;;;;;;;;5049353;28;11500;-78
2023/11/29 11:48:05;;;;;;;;;18.50;18.50;;;;;;;;5048988;28;11788;-81
2023/11/29 11:50:33;;;;;;;;;25.75;16.75;;;;;;;;5049165;28;12279;-83
2023/11/29 11:53:06;;;;;;;;;18.00;18.00;;;;;;;;5055003;28;11510;-81
2023/11/29 11:55:33;;;;;;;;;18.00;14.75;;;;;;;;5050172;28;11484;-79
2023/11/29 11:58:03;;;;;;;;;13.00;13.00;;;;;;;;5053403;28;11499;-85
2023/11/29 12:00:34;;;;;;;;;16.00;15.75;;;;;;;;5048972;28;11271;-83
2023/11/29 12:03:04;;;;;;;;;14.75;13.75;;;;;;;;5051305;28;11493;-76
2023/11/29 12:05:31;;;;;;;;;18.25;16.50;;;;;;;;5054731;28;11311;-79
2023/11/29 12:07:59;;;;;;;;;14.00;14.00;;;;;;;;5047720;28;11303;-79
2023/11/29 12:10:26;;;;;;;;;10.75;10.75;;;;;;;;5050233;28;11150;-84
2023/11/29 12:12:55;;;;;;;;;15.50;13.00;;;;;;;;5049001;28;11021;-84
2023/11/29 12:15:22;;;;;;;;;16.00;12.00;;;;;;;;5048714;28;10882;-81
2023/11/29 12:17:51;;;;;;;;;15.00;13.50;;;;;;;;5048858;28;10992;-81
2023/11/29 12:20:19;;;;;;;;;17.50;15.25;;;;;;;;5046950;28;11126;-80
2023/11/29 12:22:47;;;;;;;;;15.00;15.00;;;;;;;;5035939;28;11215;-79
2023/11/29 12:25:16;;;;;;;;;16.25;14.50;;;;;;;;5047854;28;11205;-79
2023/11/29 12:27:46;;;;;;;;;17.25;15.00;;;;;;;;5048488;28;11281;-80
2023/11/29 12:30:14;;;;;;;;;17.00;15.00;;;;;;;;5048337;28;11117;-81
2023/11/29 12:32:41;;;;;;;;;15.50;14.00;;;;;;;;5049520;28;11135;-87
2023/11/29 12:35:15;;;;;;;;;13.00;13.00;;;;;;;;5049014;28;11946;-82
2023/11/29 12:37:44;;;;;;;;;16.50;15.50;;;;;;;;5051176;28;11104;-82
2023/11/29 12:40:16;;;;;;;;;15.50;12.00;;;;;;;;5053981;28;11031;-80
2023/11/29 12:42:44;;;;;;;;;13.75;13.75;;;;;;;;5055410;28;11000;-80
2023/11/29 12:45:12;;;;;;;;;16.25;14.00;;;;;;;;5057298;28;11060;-81
2023/11/29 12:47:39;;;;;;;;;14.25;14.25;;;;;;;;5046242;28;11213;-83
2023/11/29 12:50:07;;;;;;;;;9.25;9.25;;;;;;;;5047181;28;11088;-80
2023/11/29 12:52:36;;;;;;;;;14.75;14.75;;;;;;;;5043084;28;11194;-81
2023/11/29 12:55:03;;;;;;;;;14.75;13.00;;;;;;;;5055386;28;11416;-82
2023/11/29 12:57:31;;;;;;;;;16.00;12.50;;;;;;;;5052999;28;11103;-80
2023/11/29 12:59:58;;;;;;;;;17.00;14.50;;;;;;;;5050052;28;11036;-79
2023/11/29 13:02:25;;;;;;;;;13.50;13.50;;;;;;;;5050703;28;11085;-81
2023/11/29 13:04:53;;;;;;;;;14.00;10.25;;;;;;;;5051322;28;11280;-85
2023/11/29 13:07:20;;;;;;;;;16.50;13.50;;;;;;;;5049167;28;11033;-78
2023/11/29 13:09:49;;;;;;;;;15.00;15.00;;;;;;;;5048203;28;10972;-83
2023/11/29 13:12:16;;;;;;;;;12.25;11.00;;;;;;;;5047912;28;11173;-82
2023/11/29 13:14:43;;;;;;;;;15.50;10.75;;;;;;;;5048713;28;11011;-81
2023/11/29 13:17:12;;;;;;;;;17.75;11.25;;;;;;;;5047143;28;10974;-77
2023/11/29 13:19:41;;;;;;;;;15.50;12.50;;;;;;;;5041417;28;10956;-86
2023/11/29 13:22:08;;;;;;;;;15.25;12.25;;;;;;;;5047287;28;10794;-82
2023/11/29 13:24:35;;;;;;;;;13.00;11.75;;;;;;;;5052279;28;10849;-82
2023/11/29 13:27:05;;;;;;;;;11.00;8.00;;;;;;;;5051768;28;11034;-83
2023/11/29 13:29:33;;;;;;;;;14.50;12.75;;;;;;;;5052208;28;11009;-80
2023/11/29 13:32:01;;;;;;;;;10.00;9.00;;;;;;;;5050982;28;10952;-78
2023/11/29 13:34:29;;;;;;;;;15.75;15.75;;;;;;;;5052424;28;10792;-82
2023/11/29 13:36:58;;;;;;;;;11.50;11.00;;;;;;;;5051303;28;10848;-83
2023/11/29 13:39:27;;;;;;;;;9.00;8.75;;;;;;;;5051778;28;10846;-79
2023/11/29 13:41:57;;;;;;;;;15.25;13.50;;;;;;;;5051439;28;10688;-75
2023/11/29 13:44:27;;;;;;;;;15.00;12.75;;;;;;;;5051709;28;10909;-84
2023/11/29 13:46:57;;;;;;;;;10.00;10.00;;;;;;;;5051542;28;10791;-80
2023/11/29 13:49:24;;;;;;;;;11.00;11.00;;;;;;;;5051557;28;10662;-77
2023/11/29 13:51:51;;;;;;;;;10.75;10.75;;;;;;;;5050971;28;10827;-85
2023/11/29 13:54:19;;;;;;;;;13.50;13.50;;;;;;;;5051890;28;10739;-83
2023/11/29 13:56:46;;;;;;;;;9.75;9.75;;;;;;;;5038846;28;10772;-82
2023/11/29 13:59:15;;;;;;;;;10.25;10.25;;;;;;;;5051511;28;11677;-84
2023/11/29 14:01:44;;;;;;;;;18.50;14.00;;;;;;;;5051954;28;10648;-79
2023/11/29 14:04:11;;;;;;;;;8.75;7.75;;;;;;;;5051091;28;10717;-85
2023/11/29 14:06:38;;;;;;;;;10.50;10.50;;;;;;;;5051960;28;10605;-83
2023/11/29 14:09:06;;;;;;;;;11.00;11.00;;;;;;;;5051428;28;10780;-84
2023/11/29 14:11:35;;;;;;;;;13.00;13.00;;;;;;;;5051077;28;10839;-83
2023/11/29 14:14:03;;;;;;;;;18.00;14.25;;;;;;;;5051497;28;10746;-89
2023/11/29 14:16:30;;;;;;;;;14.75;14.75;;;;;;;;5051882;28;10713;-88
2023/11/29 14:19:03;;;;;;;;;15.50;14.00;;;;;;;;5052007;28;10858;-87
2023/11/29 14:21:31;;;;;;;;;14.50;14.50;;;;;;;;5051960;28;10814;-92
2023/11/29 14:23:58;;;;;;;;;16.25;16.00;;;;;;;;5051367;28;11647;-90
2023/11/29 14:26:25;;;;;;;;;16.00;15.00;;;;;;;;5052640;28;10992;-86